sensor_id;sensor_type;location;lat;lon;timestamp;P1;durP1;ratioP1;P2;durP2;ratioP2
19137;SDS011;68178;52.188;5.598;2023-09-18T00:00:48;21.77;;;15.55;;
19137;SDS011;68178;52.188;5.598;2023-09-18T00:03:20;18.35;;;13.77;;
19137;SDS011;68178;52.188;5.598;2023-09-18T00:05:49;19.08;;;13.90;;
19137;SDS011;68178;52.188;5.598;2023-09-18T00:08:16;21.73;;;14.15;;
19137;SDS011;68178;52.188;5.598;2023-09-18T00:10:43;23.60;;;16.10;;
19137;SDS011;68178;52.188;5.598;2023-09-18T00:13:13;21.02;;;15.35;;
19137;SDS011;68178;52.188;5.598;2023-09-18T00:15:38;21.38;;;15.00;;
19137;SDS011;68178;52.188;5.598;2023-09-18T00:18:06;24.00;;;16.10;;
19137;SDS011;68178;52.188;5.598;2023-09-18T00:20:31;21.13;;;13.85;;
19137;SDS011;68178;52.188;5.598;2023-09-18T00:22:57;21.55;;;15.45;;
19137;SDS011;68178;52.188;5.598;2023-09-18T00:25:22;19.35;;;14.93;;
19137;SDS011;68178;52.188;5.598;2023-09-18T00:27:48;21.92;;;16.13;;
19137;SDS011;68178;52.188;5.598;2023-09-18T00:30:14;22.88;;;15.18;;
19137;SDS011;68178;52.188;5.598;2023-09-18T00:32:39;22.88;;;14.95;;
19137;SDS011;68178;52.188;5.598;2023-09-18T00:35:05;21.25;;;14.50;;
19137;SDS011;68178;52.188;5.598;2023-09-18T00:37:31;23.73;;;15.90;;
19137;SDS011;68178;52.188;5.598;2023-09-18T00:39:56;27.73;;;17.27;;
19137;SDS011;68178;52.188;5.598;2023-09-18T00:42:22;23.67;;;15.98;;
19137;SDS011;68178;52.188;5.598;2023-09-18T00:44:48;20.65;;;15.88;;
19137;SDS011;68178;52.188;5.598;2023-09-18T00:47:15;21.70;;;15.98;;
19137;SDS011;68178;52.188;5.598;2023-09-18T00:49:41;21.13;;;15.38;;
19137;SDS011;68178;52.188;5.598;2023-09-18T00:52:10;23.13;;;16.88;;
19137;SDS011;68178;52.188;5.598;2023-09-18T00:54:36;26.02;;;15.70;;
19137;SDS011;68178;52.188;5.598;2023-09-18T00:57:03;23.55;;;15.80;;
19137;SDS011;68178;52.188;5.598;2023-09-18T00:59:30;23.98;;;15.80;;
19137;SDS011;68178;52.188;5.598;2023-09-18T01:01:58;21.52;;;14.27;;
19137;SDS011;68178;52.188;5.598;2023-09-18T01:04:24;21.45;;;15.07;;
19137;SDS011;68178;52.188;5.598;2023-09-18T01:06:53;24.10;;;15.80;;
19137;SDS011;68178;52.188;5.598;2023-09-18T01:09:21;20.25;;;14.10;;
19137;SDS011;68178;52.188;5.598;2023-09-18T01:17:09;23.10;;;15.88;;
19137;SDS011;68178;52.188;5.598;2023-09-18T01:22:06;26.83;;;15.02;;
19137;SDS011;68178;52.188;5.598;2023-09-18T01:24:33;22.95;;;16.45;;
19137;SDS011;68178;52.188;5.598;2023-09-18T01:26:59;21.38;;;15.10;;
19137;SDS011;68178;52.188;5.598;2023-09-18T01:29:25;20.13;;;14.48;;
19137;SDS011;68178;52.188;5.598;2023-09-18T01:31:50;20.08;;;14.98;;
19137;SDS011;68178;52.188;5.598;2023-09-18T01:34:18;24.00;;;15.93;;
19137;SDS011;68178;52.188;5.598;2023-09-18T01:36:46;21.52;;;15.15;;
19137;SDS011;68178;52.188;5.598;2023-09-18T01:39:12;23.02;;;14.38;;
19137;SDS011;68178;52.188;5.598;2023-09-18T01:41:39;19.38;;;15.05;;
19137;SDS011;68178;52.188;5.598;2023-09-18T01:44:06;21.25;;;14.85;;
19137;SDS011;68178;52.188;5.598;2023-09-18T01:46:32;20.52;;;14.57;;
19137;SDS011;68178;52.188;5.598;2023-09-18T01:49:01;17.77;;;13.75;;
19137;SDS011;68178;52.188;5.598;2023-09-18T01:51:28;20.92;;;14.77;;
19137;SDS011;68178;52.188;5.598;2023-09-18T01:53:54;20.02;;;14.30;;
19137;SDS011;68178;52.188;5.598;2023-09-18T01:56:20;19.58;;;13.90;;
19137;SDS011;68178;52.188;5.598;2023-09-18T01:58:46;21.40;;;13.25;;
19137;SDS011;68178;52.188;5.598;2023-09-18T02:01:12;20.63;;;14.55;;
19137;SDS011;68178;52.188;5.598;2023-09-18T02:03:37;24.67;;;14.73;;
19137;SDS011;68178;52.188;5.598;2023-09-18T02:06:07;20.88;;;14.80;;
19137;SDS011;68178;52.188;5.598;2023-09-18T02:08:33;18.80;;;14.38;;
19137;SDS011;68178;52.188;5.598;2023-09-18T02:10:59;20.50;;;14.38;;
19137;SDS011;68178;52.188;5.598;2023-09-18T02:13:25;19.58;;;14.20;;
19137;SDS011;68178;52.188;5.598;2023-09-18T02:15:50;21.25;;;15.00;;
19137;SDS011;68178;52.188;5.598;2023-09-18T02:18:16;18.67;;;13.13;;
19137;SDS011;68178;52.188;5.598;2023-09-18T02:20:42;20.50;;;14.00;;
19137;SDS011;68178;52.188;5.598;2023-09-18T02:23:12;20.20;;;13.80;;
19137;SDS011;68178;52.188;5.598;2023-09-18T02:25:38;20.23;;;13.30;;
19137;SDS011;68178;52.188;5.598;2023-09-18T02:28:05;22.50;;;15.32;;
19137;SDS011;68178;52.188;5.598;2023-09-18T02:30:31;17.67;;;13.90;;
19137;SDS011;68178;52.188;5.598;2023-09-18T02:32:56;19.60;;;13.70;;
19137;SDS011;68178;52.188;5.598;2023-09-18T02:35:22;17.23;;;13.93;;
19137;SDS011;68178;52.188;5.598;2023-09-18T02:37:47;19.80;;;14.38;;
19137;SDS011;68178;52.188;5.598;2023-09-18T02:40:13;21.20;;;14.82;;
19137;SDS011;68178;52.188;5.598;2023-09-18T02:42:39;20.15;;;13.23;;
19137;SDS011;68178;52.188;5.598;2023-09-18T02:45:04;23.58;;;15.23;;
19137;SDS011;68178;52.188;5.598;2023-09-18T02:47:31;18.50;;;13.40;;
19137;SDS011;68178;52.188;5.598;2023-09-18T02:49:57;23.63;;;15.52;;
19137;SDS011;68178;52.188;5.598;2023-09-18T02:52:22;22.67;;;14.95;;
19137;SDS011;68178;52.188;5.598;2023-09-18T02:54:48;23.05;;;15.30;;
19137;SDS011;68178;52.188;5.598;2023-09-18T02:57:13;17.60;;;12.35;;
19137;SDS011;68178;52.188;5.598;2023-09-18T02:59:39;19.95;;;13.65;;
19137;SDS011;68178;52.188;5.598;2023-09-18T03:02:05;19.20;;;13.32;;
19137;SDS011;68178;52.188;5.598;2023-09-18T03:04:31;14.68;;;11.60;;
19137;SDS011;68178;52.188;5.598;2023-09-18T03:06:56;18.88;;;13.93;;
19137;SDS011;68178;52.188;5.598;2023-09-18T03:09:22;20.17;;;14.10;;
19137;SDS011;68178;52.188;5.598;2023-09-18T03:11:47;20.13;;;13.88;;
19137;SDS011;68178;52.188;5.598;2023-09-18T03:14:13;18.40;;;13.20;;
19137;SDS011;68178;52.188;5.598;2023-09-18T03:16:38;19.40;;;12.82;;
19137;SDS011;68178;52.188;5.598;2023-09-18T03:19:04;14.88;;;11.27;;
19137;SDS011;68178;52.188;5.598;2023-09-18T03:21:30;19.42;;;11.73;;
19137;SDS011;68178;52.188;5.598;2023-09-18T03:23:58;18.42;;;11.95;;
19137;SDS011;68178;52.188;5.598;2023-09-18T03:26:24;15.10;;;10.07;;
19137;SDS011;68178;52.188;5.598;2023-09-18T03:28:50;21.40;;;13.27;;
19137;SDS011;68178;52.188;5.598;2023-09-18T03:31:15;17.05;;;11.98;;
19137;SDS011;68178;52.188;5.598;2023-09-18T03:33:41;17.88;;;11.82;;
19137;SDS011;68178;52.188;5.598;2023-09-18T03:36:06;17.88;;;12.68;;
19137;SDS011;68178;52.188;5.598;2023-09-18T03:38:33;15.50;;;11.35;;
19137;SDS011;68178;52.188;5.598;2023-09-18T03:41:00;19.48;;;11.88;;
19137;SDS011;68178;52.188;5.598;2023-09-18T03:43:26;19.17;;;13.43;;
19137;SDS011;68178;52.188;5.598;2023-09-18T03:45:51;13.98;;;11.30;;
19137;SDS011;68178;52.188;5.598;2023-09-18T03:48:17;16.00;;;11.90;;
19137;SDS011;68178;52.188;5.598;2023-09-18T03:50:42;19.08;;;11.73;;
19137;SDS011;68178;52.188;5.598;2023-09-18T03:53:09;19.88;;;11.93;;
19137;SDS011;68178;52.188;5.598;2023-09-18T03:55:35;18.10;;;11.93;;
19137;SDS011;68178;52.188;5.598;2023-09-18T03:58:00;21.17;;;12.75;;
19137;SDS011;68178;52.188;5.598;2023-09-18T04:00:26;19.55;;;12.55;;
19137;SDS011;68178;52.188;5.598;2023-09-18T04:02:51;21.27;;;12.85;;
19137;SDS011;68178;52.188;5.598;2023-09-18T04:05:17;17.15;;;12.55;;
19137;SDS011;68178;52.188;5.598;2023-09-18T04:07:43;14.75;;;10.95;;
19137;SDS011;68178;52.188;5.598;2023-09-18T04:10:11;17.40;;;12.70;;
19137;SDS011;68178;52.188;5.598;2023-09-18T04:12:43;17.95;;;12.57;;
19137;SDS011;68178;52.188;5.598;2023-09-18T04:15:11;15.95;;;11.75;;
19137;SDS011;68178;52.188;5.598;2023-09-18T04:17:39;22.33;;;12.18;;
19137;SDS011;68178;52.188;5.598;2023-09-18T04:20:05;16.92;;;11.88;;
19137;SDS011;68178;52.188;5.598;2023-09-18T04:22:31;20.83;;;13.50;;
19137;SDS011;68178;52.188;5.598;2023-09-18T04:24:56;19.80;;;12.63;;
19137;SDS011;68178;52.188;5.598;2023-09-18T04:27:22;14.35;;;10.65;;
19137;SDS011;68178;52.188;5.598;2023-09-18T04:29:47;15.18;;;11.27;;
19137;SDS011;68178;52.188;5.598;2023-09-18T04:32:13;17.58;;;12.23;;
19137;SDS011;68178;52.188;5.598;2023-09-18T04:34:38;13.60;;;11.30;;
19137;SDS011;68178;52.188;5.598;2023-09-18T04:37:04;19.60;;;12.05;;
19137;SDS011;68178;52.188;5.598;2023-09-18T04:39:29;17.60;;;11.80;;
19137;SDS011;68178;52.188;5.598;2023-09-18T04:41:55;21.95;;;12.88;;
19137;SDS011;68178;52.188;5.598;2023-09-18T04:44:21;14.82;;;11.40;;
19137;SDS011;68178;52.188;5.598;2023-09-18T04:46:46;20.17;;;11.88;;
19137;SDS011;68178;52.188;5.598;2023-09-18T04:49:12;16.15;;;11.50;;
19137;SDS011;68178;52.188;5.598;2023-09-18T04:51:38;17.92;;;12.75;;
19137;SDS011;68178;52.188;5.598;2023-09-18T04:54:06;20.10;;;12.18;;
19137;SDS011;68178;52.188;5.598;2023-09-18T04:56:32;18.27;;;11.45;;
19137;SDS011;68178;52.188;5.598;2023-09-18T04:58:58;19.48;;;11.57;;
19137;SDS011;68178;52.188;5.598;2023-09-18T05:01:24;17.25;;;11.95;;
19137;SDS011;68178;52.188;5.598;2023-09-18T05:03:50;19.77;;;13.52;;
19137;SDS011;68178;52.188;5.598;2023-09-18T05:06:16;19.33;;;13.05;;
19137;SDS011;68178;52.188;5.598;2023-09-18T05:08:42;16.85;;;12.52;;
19137;SDS011;68178;52.188;5.598;2023-09-18T05:11:08;22.30;;;13.82;;
19137;SDS011;68178;52.188;5.598;2023-09-18T05:13:34;22.30;;;13.85;;
19137;SDS011;68178;52.188;5.598;2023-09-18T05:16:00;21.23;;;13.73;;
19137;SDS011;68178;52.188;5.598;2023-09-18T05:18:26;18.95;;;13.40;;
19137;SDS011;68178;52.188;5.598;2023-09-18T05:20:51;20.15;;;12.82;;
19137;SDS011;68178;52.188;5.598;2023-09-18T05:23:17;20.42;;;13.43;;
19137;SDS011;68178;52.188;5.598;2023-09-18T05:25:44;17.42;;;13.10;;
19137;SDS011;68178;52.188;5.598;2023-09-18T05:28:09;21.50;;;13.10;;
19137;SDS011;68178;52.188;5.598;2023-09-18T05:30:36;19.67;;;12.27;;
19137;SDS011;68178;52.188;5.598;2023-09-18T05:33:06;15.93;;;11.10;;
19137;SDS011;68178;52.188;5.598;2023-09-18T05:35:37;21.05;;;12.40;;
19137;SDS011;68178;52.188;5.598;2023-09-18T05:38:10;20.92;;;11.48;;
19137;SDS011;68178;52.188;5.598;2023-09-18T05:40:37;18.02;;;11.40;;
19137;SDS011;68178;52.188;5.598;2023-09-18T05:43:03;16.75;;;11.15;;
19137;SDS011;68178;52.188;5.598;2023-09-18T05:45:29;18.05;;;10.85;;
19137;SDS011;68178;52.188;5.598;2023-09-18T05:47:56;19.77;;;11.45;;
19137;SDS011;68178;52.188;5.598;2023-09-18T05:50:31;22.65;;;12.27;;
19137;SDS011;68178;52.188;5.598;2023-09-18T05:52:59;16.42;;;11.52;;
19137;SDS011;68178;52.188;5.598;2023-09-18T05:55:28;17.88;;;10.85;;
19137;SDS011;68178;52.188;5.598;2023-09-18T05:57:54;18.90;;;11.70;;
19137;SDS011;68178;52.188;5.598;2023-09-18T06:00:20;21.10;;;11.82;;
19137;SDS011;68178;52.188;5.598;2023-09-18T06:02:47;18.00;;;10.98;;
19137;SDS011;68178;52.188;5.598;2023-09-18T06:05:13;20.73;;;11.90;;
19137;SDS011;68178;52.188;5.598;2023-09-18T06:07:41;16.45;;;10.55;;
19137;SDS011;68178;52.188;5.598;2023-09-18T06:10:06;15.27;;;11.20;;
19137;SDS011;68178;52.188;5.598;2023-09-18T06:12:32;18.75;;;12.27;;
19137;SDS011;68178;52.188;5.598;2023-09-18T06:14:58;19.25;;;12.57;;
19137;SDS011;68178;52.188;5.598;2023-09-18T06:17:23;18.77;;;12.38;;
19137;SDS011;68178;52.188;5.598;2023-09-18T06:19:49;19.50;;;11.70;;
19137;SDS011;68178;52.188;5.598;2023-09-18T06:22:15;11.85;;;7.07;;
19137;SDS011;68178;52.188;5.598;2023-09-18T06:24:40;91.22;;;22.48;;
19137;SDS011;68178;52.188;5.598;2023-09-18T06:27:06;10.35;;;7.43;;
19137;SDS011;68178;52.188;5.598;2023-09-18T06:29:32;16.55;;;10.05;;
19137;SDS011;68178;52.188;5.598;2023-09-18T06:31:58;25.25;;;15.52;;
19137;SDS011;68178;52.188;5.598;2023-09-18T06:34:24;25.67;;;17.95;;
19137;SDS011;68178;52.188;5.598;2023-09-18T06:36:50;25.25;;;17.00;;
19137;SDS011;68178;52.188;5.598;2023-09-18T06:39:16;25.02;;;15.10;;
19137;SDS011;68178;52.188;5.598;2023-09-18T06:41:42;25.08;;;14.15;;
19137;SDS011;68178;52.188;5.598;2023-09-18T06:44:07;19.42;;;15.02;;
19137;SDS011;68178;52.188;5.598;2023-09-18T06:46:33;21.70;;;14.45;;
19137;SDS011;68178;52.188;5.598;2023-09-18T06:48:58;16.65;;;12.93;;
19137;SDS011;68178;52.188;5.598;2023-09-18T06:51:26;18.13;;;12.65;;
19137;SDS011;68178;52.188;5.598;2023-09-18T06:53:52;19.58;;;12.82;;
19137;SDS011;68178;52.188;5.598;2023-09-18T06:56:18;31.73;;;23.35;;
19137;SDS011;68178;52.188;5.598;2023-09-18T06:58:44;17.63;;;9.50;;
19137;SDS011;68178;52.188;5.598;2023-09-18T07:01:11;17.77;;;11.15;;
19137;SDS011;68178;52.188;5.598;2023-09-18T07:03:37;19.42;;;12.23;;
19137;SDS011;68178;52.188;5.598;2023-09-18T07:06:05;27.23;;;16.30;;
19137;SDS011;68178;52.188;5.598;2023-09-18T07:08:30;24.13;;;15.82;;
19137;SDS011;68178;52.188;5.598;2023-09-18T07:10:57;25.08;;;19.02;;
19137;SDS011;68178;52.188;5.598;2023-09-18T07:13:23;23.50;;;17.13;;
19137;SDS011;68178;52.188;5.598;2023-09-18T07:15:49;15.73;;;11.48;;
19137;SDS011;68178;52.188;5.598;2023-09-18T07:18:15;14.07;;;9.45;;
19137;SDS011;68178;52.188;5.598;2023-09-18T07:20:41;23.83;;;17.70;;
19137;SDS011;68178;52.188;5.598;2023-09-18T07:23:08;26.00;;;20.92;;
19137;SDS011;68178;52.188;5.598;2023-09-18T07:25:34;27.05;;;22.83;;
19137;SDS011;68178;52.188;5.598;2023-09-18T07:28:03;27.92;;;22.40;;
19137;SDS011;68178;52.188;5.598;2023-09-18T07:30:30;12.50;;;8.70;;
19137;SDS011;68178;52.188;5.598;2023-09-18T07:32:56;11.73;;;8.38;;
19137;SDS011;68178;52.188;5.598;2023-09-18T07:35:23;13.38;;;9.38;;
19137;SDS011;68178;52.188;5.598;2023-09-18T07:37:49;13.43;;;9.95;;
19137;SDS011;68178;52.188;5.598;2023-09-18T07:40:15;12.73;;;9.32;;
19137;SDS011;68178;52.188;5.598;2023-09-18T07:42:41;20.80;;;18.65;;
19137;SDS011;68178;52.188;5.598;2023-09-18T07:45:08;15.88;;;13.70;;
19137;SDS011;68178;52.188;5.598;2023-09-18T07:47:34;18.67;;;16.60;;
19137;SDS011;68178;52.188;5.598;2023-09-18T07:50:00;20.13;;;16.05;;
19137;SDS011;68178;52.188;5.598;2023-09-18T07:52:26;10.52;;;9.73;;
19137;SDS011;68178;52.188;5.598;2023-09-18T07:54:52;14.63;;;13.25;;
19137;SDS011;68178;52.188;5.598;2023-09-18T07:57:17;17.45;;;14.13;;
19137;SDS011;68178;52.188;5.598;2023-09-18T07:59:44;13.48;;;12.18;;
19137;SDS011;68178;52.188;5.598;2023-09-18T08:02:11;12.73;;;8.85;;
19137;SDS011;68178;52.188;5.598;2023-09-18T08:04:37;12.43;;;11.50;;
19137;SDS011;68178;52.188;5.598;2023-09-18T08:07:03;11.75;;;10.60;;
19137;SDS011;68178;52.188;5.598;2023-09-18T08:09:30;12.27;;;10.93;;
19137;SDS011;68178;52.188;5.598;2023-09-18T08:11:56;7.88;;;7.30;;
19137;SDS011;68178;52.188;5.598;2023-09-18T08:14:22;3.10;;;2.78;;
19137;SDS011;68178;52.188;5.598;2023-09-18T08:16:47;3.47;;;2.53;;
19137;SDS011;68178;52.188;5.598;2023-09-18T08:19:16;3.95;;;3.47;;
19137;SDS011;68178;52.188;5.598;2023-09-18T08:21:42;4.78;;;4.45;;
19137;SDS011;68178;52.188;5.598;2023-09-18T08:24:07;5.20;;;4.78;;
19137;SDS011;68178;52.188;5.598;2023-09-18T08:26:33;5.88;;;5.25;;
19137;SDS011;68178;52.188;5.598;2023-09-18T08:28:58;4.78;;;3.70;;
19137;SDS011;68178;52.188;5.598;2023-09-18T08:31:24;4.22;;;3.67;;
19137;SDS011;68178;52.188;5.598;2023-09-18T08:33:50;4.55;;;3.42;;
19137;SDS011;68178;52.188;5.598;2023-09-18T08:36:16;3.75;;;3.38;;
19137;SDS011;68178;52.188;5.598;2023-09-18T08:38:41;4.05;;;2.92;;
19137;SDS011;68178;52.188;5.598;2023-09-18T08:41:09;4.07;;;3.55;;
19137;SDS011;68178;52.188;5.598;2023-09-18T08:43:37;4.40;;;2.92;;
19137;SDS011;68178;52.188;5.598;2023-09-18T08:46:05;5.13;;;3.38;;
19137;SDS011;68178;52.188;5.598;2023-09-18T08:48:31;3.15;;;2.65;;
19137;SDS011;68178;52.188;5.598;2023-09-18T08:51:02;4.43;;;3.40;;
19137;SDS011;68178;52.188;5.598;2023-09-18T08:53:33;4.68;;;4.10;;
19137;SDS011;68178;52.188;5.598;2023-09-18T08:56:00;4.30;;;3.90;;
19137;SDS011;68178;52.188;5.598;2023-09-18T08:58:33;3.88;;;3.58;;
19137;SDS011;68178;52.188;5.598;2023-09-18T09:01:02;2.80;;;2.60;;
19137;SDS011;68178;52.188;5.598;2023-09-18T09:03:29;4.50;;;4.10;;
19137;SDS011;68178;52.188;5.598;2023-09-18T09:05:55;4.00;;;3.60;;
19137;SDS011;68178;52.188;5.598;2023-09-18T09:08:21;2.97;;;2.78;;
19137;SDS011;68178;52.188;5.598;2023-09-18T09:10:48;3.60;;;3.30;;
19137;SDS011;68178;52.188;5.598;2023-09-18T09:13:13;3.63;;;3.38;;
19137;SDS011;68178;52.188;5.598;2023-09-18T09:15:43;2.75;;;2.55;;
19137;SDS011;68178;52.188;5.598;2023-09-18T09:18:11;4.60;;;4.30;;
19137;SDS011;68178;52.188;5.598;2023-09-18T09:20:37;2.42;;;2.17;;
19137;SDS011;68178;52.188;5.598;2023-09-18T09:23:05;1.73;;;1.63;;
19137;SDS011;68178;52.188;5.598;2023-09-18T09:25:34;1.80;;;1.70;;
19137;SDS011;68178;52.188;5.598;2023-09-18T09:28:01;2.00;;;1.88;;
19137;SDS011;68178;52.188;5.598;2023-09-18T09:30:29;3.67;;;2.45;;
19137;SDS011;68178;52.188;5.598;2023-09-18T09:32:56;3.75;;;3.05;;
19137;SDS011;68178;52.188;5.598;2023-09-18T09:35:24;2.63;;;2.40;;
19137;SDS011;68178;52.188;5.598;2023-09-18T09:37:52;1.98;;;1.88;;
19137;SDS011;68178;52.188;5.598;2023-09-18T09:40:20;1.38;;;1.27;;
19137;SDS011;68178;52.188;5.598;2023-09-18T09:42:47;1.90;;;1.80;;
19137;SDS011;68178;52.188;5.598;2023-09-18T09:45:16;2.10;;;1.90;;
19137;SDS011;68178;52.188;5.598;2023-09-18T09:47:42;2.50;;;1.90;;
19137;SDS011;68178;52.188;5.598;2023-09-18T09:50:12;2.30;;;2.17;;
19137;SDS011;68178;52.188;5.598;2023-09-18T09:52:44;2.72;;;2.03;;
19137;SDS011;68178;52.188;5.598;2023-09-18T09:57:49;1.80;;;1.70;;
19137;SDS011;68178;52.188;5.598;2023-09-18T10:00:16;2.00;;;1.90;;
19137;SDS011;68178;52.188;5.598;2023-09-18T10:03:06;0.93;;;0.93;;
19137;SDS011;68178;52.188;5.598;2023-09-18T10:05:44;1.58;;;1.48;;
19137;SDS011;68178;52.188;5.598;2023-09-18T10:08:12;1.58;;;1.48;;
19137;SDS011;68178;52.188;5.598;2023-09-18T10:10:51;1.65;;;1.55;;
19137;SDS011;68178;52.188;5.598;2023-09-18T10:13:19;1.33;;;1.23;;
19137;SDS011;68178;52.188;5.598;2023-09-18T10:15:46;1.30;;;1.20;;
19137;SDS011;68178;52.188;5.598;2023-09-18T10:20:56;1.80;;;1.70;;
19137;SDS011;68178;52.188;5.598;2023-09-18T10:26:46;1.77;;;1.67;;
19137;SDS011;68178;52.188;5.598;2023-09-18T10:29:16;1.80;;;1.70;;
19137;SDS011;68178;52.188;5.598;2023-09-18T10:31:44;2.95;;;2.33;;
19137;SDS011;68178;52.188;5.598;2023-09-18T10:34:12;2.00;;;1.90;;
19137;SDS011;68178;52.188;5.598;2023-09-18T10:36:41;1.95;;;1.85;;
19137;SDS011;68178;52.188;5.598;2023-09-18T10:39:06;2.30;;;2.10;;
19137;SDS011;68178;52.188;5.598;2023-09-18T10:41:37;2.45;;;2.25;;
19137;SDS011;68178;52.188;5.598;2023-09-18T10:44:04;2.28;;;2.17;;
19137;SDS011;68178;52.188;5.598;2023-09-18T10:46:30;4.70;;;2.60;;
19137;SDS011;68178;52.188;5.598;2023-09-18T10:48:57;2.90;;;2.67;;
19137;SDS011;68178;52.188;5.598;2023-09-18T10:51:28;1.95;;;1.83;;
19137;SDS011;68178;52.188;5.598;2023-09-18T10:53:56;2.95;;;2.75;;
19137;SDS011;68178;52.188;5.598;2023-09-18T10:56:22;2.90;;;2.67;;
19137;SDS011;68178;52.188;5.598;2023-09-18T10:58:58;3.13;;;2.85;;
19137;SDS011;68178;52.188;5.598;2023-09-18T11:01:25;3.17;;;2.83;;
19137;SDS011;68178;52.188;5.598;2023-09-18T11:03:52;3.38;;;2.53;;
19137;SDS011;68178;52.188;5.598;2023-09-18T11:06:22;3.63;;;3.13;;
19137;SDS011;68178;52.188;5.598;2023-09-18T11:08:51;2.30;;;2.20;;
19137;SDS011;68178;52.188;5.598;2023-09-18T11:11:26;3.00;;;2.80;;
19137;SDS011;68178;52.188;5.598;2023-09-18T11:13:55;3.20;;;2.92;;
19137;SDS011;68178;52.188;5.598;2023-09-18T11:21:29;2.95;;;2.75;;
19137;SDS011;68178;52.188;5.598;2023-09-18T11:26:24;3.35;;;3.05;;
19137;SDS011;68178;52.188;5.598;2023-09-18T11:28:55;3.05;;;2.80;;
19137;SDS011;68178;52.188;5.598;2023-09-18T11:31:21;3.67;;;3.38;;
19137;SDS011;68178;52.188;5.598;2023-09-18T11:34:26;2.70;;;2.35;;
19137;SDS011;68178;52.188;5.598;2023-09-18T11:36:54;1.80;;;1.65;;
19137;SDS011;68178;52.188;5.598;2023-09-18T11:42:21;2.60;;;2.47;;
19137;SDS011;68178;52.188;5.598;2023-09-18T11:44:51;2.78;;;2.58;;
19137;SDS011;68178;52.188;5.598;2023-09-18T11:47:19;3.45;;;3.15;;
19137;SDS011;68178;52.188;5.598;2023-09-18T11:49:55;3.83;;;3.35;;
19137;SDS011;68178;52.188;5.598;2023-09-18T11:52:26;4.95;;;3.53;;
19137;SDS011;68178;52.188;5.598;2023-09-18T11:54:55;3.10;;;2.90;;
19137;SDS011;68178;52.188;5.598;2023-09-18T11:57:22;5.30;;;3.47;;
19137;SDS011;68178;52.188;5.598;2023-09-18T11:59:49;3.35;;;3.13;;
19137;SDS011;68178;52.188;5.598;2023-09-18T12:02:27;2.72;;;2.53;;
19137;SDS011;68178;52.188;5.598;2023-09-18T12:04:55;3.08;;;2.70;;
19137;SDS011;68178;52.188;5.598;2023-09-18T12:07:21;3.42;;;2.83;;
19137;SDS011;68178;52.188;5.598;2023-09-18T12:09:47;3.10;;;2.88;;
19137;SDS011;68178;52.188;5.598;2023-09-18T12:12:13;7.25;;;2.97;;
19137;SDS011;68178;52.188;5.598;2023-09-18T12:14:40;2.72;;;2.53;;
19137;SDS011;68178;52.188;5.598;2023-09-18T12:17:12;2.53;;;2.13;;
19137;SDS011;68178;52.188;5.598;2023-09-18T12:19:49;2.03;;;1.85;;
19137;SDS011;68178;52.188;5.598;2023-09-18T12:22:28;1.42;;;1.33;;
19137;SDS011;68178;52.188;5.598;2023-09-18T12:25:13;1.50;;;1.33;;
19137;SDS011;68178;52.188;5.598;2023-09-18T12:27:40;1.60;;;1.50;;
19137;SDS011;68178;52.188;5.598;2023-09-18T12:30:07;1.63;;;1.52;;
19137;SDS011;68178;52.188;5.598;2023-09-18T12:32:37;1.88;;;1.20;;
19137;SDS011;68178;52.188;5.598;2023-09-18T12:35:04;1.52;;;1.42;;
19137;SDS011;68178;52.188;5.598;2023-09-18T12:37:32;2.35;;;1.83;;
19137;SDS011;68178;52.188;5.598;2023-09-18T12:39:59;3.17;;;2.00;;
19137;SDS011;68178;52.188;5.598;2023-09-18T12:42:25;1.40;;;1.30;;
19137;SDS011;68178;52.188;5.598;2023-09-18T12:44:52;1.95;;;1.63;;
19137;SDS011;68178;52.188;5.598;2023-09-18T12:47:19;1.13;;;1.10;;
19137;SDS011;68178;52.188;5.598;2023-09-18T12:49:45;1.60;;;1.50;;
19137;SDS011;68178;52.188;5.598;2023-09-18T12:52:12;1.50;;;1.40;;
19137;SDS011;68178;52.188;5.598;2023-09-18T12:54:42;1.40;;;1.30;;
19137;SDS011;68178;52.188;5.598;2023-09-18T12:57:10;1.65;;;1.42;;
19137;SDS011;68178;52.188;5.598;2023-09-18T12:59:40;5.28;;;1.52;;
19137;SDS011;68178;52.188;5.598;2023-09-18T13:02:05;1.70;;;1.60;;
19137;SDS011;68178;52.188;5.598;2023-09-18T13:04:32;1.90;;;1.80;;
19137;SDS011;68178;52.188;5.598;2023-09-18T13:07:02;2.30;;;2.15;;
19137;SDS011;68178;52.188;5.598;2023-09-18T13:09:30;2.33;;;2.13;;
19137;SDS011;68178;52.188;5.598;2023-09-18T13:11:56;1.50;;;1.40;;
19137;SDS011;68178;52.188;5.598;2023-09-18T13:14:23;1.38;;;1.27;;
19137;SDS011;68178;52.188;5.598;2023-09-18T13:16:49;1.00;;;1.00;;
19137;SDS011;68178;52.188;5.598;2023-09-18T13:19:15;1.40;;;1.30;;
19137;SDS011;68178;52.188;5.598;2023-09-18T13:21:51;2.58;;;1.55;;
19137;SDS011;68178;52.188;5.598;2023-09-18T13:24:26;2.03;;;1.30;;
19137;SDS011;68178;52.188;5.598;2023-09-18T13:26:53;1.58;;;1.42;;
19137;SDS011;68178;52.188;5.598;2023-09-18T13:29:19;1.27;;;1.25;;
19137;SDS011;68178;52.188;5.598;2023-09-18T13:31:45;2.00;;;1.73;;
19137;SDS011;68178;52.188;5.598;2023-09-18T13:34:11;1.85;;;1.00;;
19137;SDS011;68178;52.188;5.598;2023-09-18T13:36:37;1.00;;;1.00;;
19137;SDS011;68178;52.188;5.598;2023-09-18T13:39:03;1.50;;;1.00;;
19137;SDS011;68178;52.188;5.598;2023-09-18T13:41:28;1.40;;;1.25;;
19137;SDS011;68178;52.188;5.598;2023-09-18T13:43:56;0.95;;;0.82;;
19137;SDS011;68178;52.188;5.598;2023-09-18T13:46:21;0.93;;;0.93;;
19137;SDS011;68178;52.188;5.598;2023-09-18T13:48:48;1.60;;;0.90;;
19137;SDS011;68178;52.188;5.598;2023-09-18T13:51:14;0.80;;;0.80;;
19137;SDS011;68178;52.188;5.598;2023-09-18T13:53:39;0.88;;;0.88;;
19137;SDS011;68178;52.188;5.598;2023-09-18T13:56:06;0.82;;;0.82;;
19137;SDS011;68178;52.188;5.598;2023-09-18T13:58:32;0.70;;;0.70;;
19137;SDS011;68178;52.188;5.598;2023-09-18T14:00:58;1.65;;;1.27;;
19137;SDS011;68178;52.188;5.598;2023-09-18T14:03:24;1.05;;;0.95;;
19137;SDS011;68178;52.188;5.598;2023-09-18T14:05:50;0.75;;;0.50;;
19137;SDS011;68178;52.188;5.598;2023-09-18T14:08:15;0.95;;;0.82;;
19137;SDS011;68178;52.188;5.598;2023-09-18T14:10:42;0.82;;;0.82;;
19137;SDS011;68178;52.188;5.598;2023-09-18T14:13:08;0.60;;;0.60;;
19137;SDS011;68178;52.188;5.598;2023-09-18T14:15:34;0.65;;;0.63;;
19137;SDS011;68178;52.188;5.598;2023-09-18T14:18:00;0.73;;;0.60;;
19137;SDS011;68178;52.188;5.598;2023-09-18T14:20:25;0.50;;;0.50;;
19137;SDS011;68178;52.188;5.598;2023-09-18T14:22:51;0.90;;;0.90;;
19137;SDS011;68178;52.188;5.598;2023-09-18T14:25:16;0.68;;;0.68;;
19137;SDS011;68178;52.188;5.598;2023-09-18T14:27:44;0.80;;;0.80;;
19137;SDS011;68178;52.188;5.598;2023-09-18T14:30:10;1.65;;;1.10;;
19137;SDS011;68178;52.188;5.598;2023-09-18T14:32:38;0.68;;;0.60;;
19137;SDS011;68178;52.188;5.598;2023-09-18T14:35:05;0.50;;;0.50;;
19137;SDS011;68178;52.188;5.598;2023-09-18T14:37:33;0.98;;;0.98;;
19137;SDS011;68178;52.188;5.598;2023-09-18T14:39:59;0.98;;;0.88;;
19137;SDS011;68178;52.188;5.598;2023-09-18T14:42:25;0.50;;;0.50;;
19137;SDS011;68178;52.188;5.598;2023-09-18T14:44:51;0.70;;;0.68;;
19137;SDS011;68178;52.188;5.598;2023-09-18T14:47:16;0.60;;;0.60;;
19137;SDS011;68178;52.188;5.598;2023-09-18T14:49:42;0.73;;;0.73;;
19137;SDS011;68178;52.188;5.598;2023-09-18T14:52:12;0.90;;;0.90;;
19137;SDS011;68178;52.188;5.598;2023-09-18T14:54:39;1.30;;;0.80;;
19137;SDS011;68178;52.188;5.598;2023-09-18T14:57:05;0.70;;;0.70;;
19137;SDS011;68178;52.188;5.598;2023-09-18T14:59:31;0.63;;;0.63;;